createdAt,value
2018-01-26T00:02:19.468Z,5.57
2018-01-26T00:07:22.777Z,5.83
2018-01-26T00:12:25.850Z,6.00
2018-01-26T00:17:29.698Z,6.37
2018-01-26T00:22:33.932Z,6.40
2018-01-26T00:27:37.819Z,7.63
2018-01-26T00:32:42.207Z,7.77
2018-01-26T00:37:46.647Z,7.57
2018-01-26T00:42:51.121Z,7.07
2018-01-26T00:47:55.578Z,7.50
2018-01-26T00:52:59.998Z,6.93
2018-01-26T00:58:03.847Z,6.83
2018-01-26T01:03:07.904Z,7.23
2018-01-26T01:08:11.759Z,7.30
2018-01-26T01:13:15.599Z,7.37
2018-01-26T01:18:19.474Z,6.90
2018-01-26T01:23:22.966Z,6.43
2018-01-26T01:28:26.839Z,5.82
2018-01-26T01:33:31.440Z,7.37
2018-01-26T01:38:36.046Z,8.10
2018-01-26T01:43:39.131Z,7.77
2018-01-26T01:48:42.233Z,8.57
2018-01-26T01:53:46.840Z,9.03
2018-01-26T01:58:50.742Z,9.00
2018-01-26T02:03:53.827Z,9.33
2018-01-26T02:08:58.262Z,9.97
2018-01-26T02:14:02.179Z,9.47
2018-01-26T02:19:05.659Z,9.47
2018-01-26T02:24:33.051Z,8.80
2018-01-26T02:29:36.877Z,9.45
2018-01-26T02:34:41.298Z,7.83
2018-01-26T02:39:44.393Z,8.40
2018-01-26T02:44:47.862Z,8.40
2018-01-26T02:49:51.012Z,8.87
2018-01-26T02:54:54.863Z,7.47
2018-01-26T02:59:57.956Z,7.67
2018-01-26T03:05:02.436Z,7.70
2018-01-26T03:10:06.885Z,6.00
2018-01-26T03:15:10.740Z,5.77
2018-01-26T03:20:15.198Z,6.03
2018-01-26T03:25:19.048Z,5.73
2018-01-26T03:30:23.668Z,6.20
2018-01-26T03:35:28.640Z,6.80
2018-01-26T03:40:33.232Z,6.27
2018-01-26T03:45:37.449Z,6.67
2018-01-26T03:50:41.319Z,7.50
2018-01-26T03:55:45.542Z,7.00
2018-01-26T04:00:49.975Z,7.07
2018-01-26T04:05:55.284Z,6.80
2018-01-26T04:10:59.144Z,7.23
2018-01-26T04:16:02.238Z,6.10
2018-01-26T04:21:05.346Z,7.10
2018-01-26T04:26:09.796Z,7.20
2018-01-26T04:31:14.404Z,8.13
2018-01-26T04:36:19.045Z,7.23
2018-01-26T04:41:22.160Z,6.30
2018-01-26T04:46:25.655Z,6.70
2018-01-26T04:51:30.264Z,6.73
2018-01-26T04:56:34.862Z,6.20
2018-01-26T05:01:39.332Z,6.50
2018-01-26T05:06:42.424Z,6.50
2018-01-26T05:11:46.881Z,7.27
2018-01-26T05:16:50.741Z,7.23
2018-01-26T05:21:55.353Z,7.57
2018-01-26T05:26:58.447Z,7.53
2018-01-26T05:32:01.545Z,8.10
2018-01-26T05:37:04.637Z,7.87
2018-01-26T05:42:08.541Z,7.97
2018-01-26T05:47:13.035Z,8.07
2018-01-26T05:52:17.488Z,8.90
2018-01-26T05:57:22.138Z,8.07
2018-01-26T06:02:25.253Z,7.60
2018-01-26T06:07:30.591Z,7.70
2018-01-26T06:12:34.820Z,7.37
2018-01-26T06:17:39.259Z,8.07
2018-01-26T06:22:43.696Z,8.13
2018-01-26T06:27:47.649Z,7.50
2018-01-26T06:32:53.857Z,8.20
2018-01-26T06:37:58.318Z,6.97
2018-01-26T06:43:02.145Z,7.87
2018-01-26T06:48:05.997Z,8.10
2018-01-26T06:53:10.461Z,8.33
2018-01-26T06:58:13.944Z,9.23
2018-01-26T07:03:17.826Z,9.80
2018-01-26T07:08:20.946Z,9.23
2018-01-26T07:13:24.892Z,9.30
2018-01-26T07:18:29.098Z,9.73
2018-01-26T07:23:33.548Z,9.00
2018-01-26T07:28:37.425Z,7.90
2018-01-26T07:33:40.947Z,8.40
2018-01-26T07:38:44.036Z,9.43
2018-01-26T07:43:48.266Z,9.17
2018-01-26T07:48:51.360Z,8.73
2018-01-26T07:53:54.472Z,9.53
2018-01-26T07:58:57.576Z,8.90
2018-01-26T08:04:02.031Z,9.70
2018-01-26T08:09:06.651Z,9.75
2018-01-26T08:14:09.778Z,10.37
2018-01-26T08:19:14.009Z,10.70
2018-01-26T08:24:17.129Z,8.90
2018-01-26T08:29:20.245Z,9.60
2018-01-26T08:34:24.107Z,8.63
2018-01-26T08:39:27.228Z,10.03
2018-01-26T08:44:31.476Z,8.63
2018-01-26T08:49:35.322Z,9.83
2018-01-26T08:54:39.765Z,9.70
2018-01-26T08:59:44.216Z,9.60
2018-01-26T09:04:47.704Z,8.70
2018-01-26T09:09:52.157Z,8.83
2018-01-26T09:14:56.595Z,8.93
2018-01-26T09:20:00.078Z,8.43
2018-01-26T09:25:04.520Z,8.13
2018-01-26T09:30:08.982Z,7.83
2018-01-26T09:35:12.456Z,7.40
2018-01-26T09:40:15.573Z,7.97
2018-01-26T09:45:20.005Z,6.30
2018-01-26T09:50:24.484Z,7.20
2018-01-26T09:55:29.506Z,7.07
2018-01-26T10:00:33.928Z,7.10
2018-01-26T10:05:37.412Z,6.75
2018-01-26T10:10:40.516Z,6.60
2018-01-26T10:15:44.976Z,6.33
2018-01-26T10:20:48.833Z,5.30
2018-01-26T10:25:52.699Z,5.87
2018-01-26T10:30:57.141Z,5.63
2018-01-26T10:36:01.593Z,4.40
2018-01-26T10:41:06.052Z,4.53
2018-01-26T10:46:09.908Z,4.57
2018-01-26T10:51:14.144Z,4.70
2018-01-26T10:56:18.391Z,5.35
2018-01-26T11:01:21.488Z,5.40
2018-01-26T11:06:24.603Z,5.67
2018-01-26T11:11:28.116Z,5.47
2018-01-26T11:16:31.237Z,5.60
2018-01-26T11:21:35.509Z,5.73
2018-01-26T11:26:38.627Z,6.40
2018-01-26T11:31:42.505Z,6.23
2018-01-26T11:36:46.005Z,6.83
2018-01-26T11:41:50.442Z,6.27
2018-01-26T11:46:55.988Z,5.33
2018-01-26T11:51:59.488Z,4.73
2018-01-26T11:57:03.723Z,4.00
2018-01-26T12:02:07.568Z,3.63
2018-01-26T12:07:11.991Z,4.40
2018-01-26T12:12:15.167Z,4.33
2018-01-26T12:17:19.443Z,4.80
2018-01-26T12:22:22.924Z,5.07
2018-01-26T12:27:27.351Z,4.60
2018-01-26T12:32:31.792Z,4.10
2018-01-26T12:37:36.037Z,4.30
2018-01-26T12:42:39.571Z,4.50
2018-01-26T12:47:44.207Z,3.80
2018-01-26T12:52:48.140Z,4.50
2018-01-26T12:57:52.005Z,4.50
2018-01-26T13:02:56.608Z,4.50
2018-01-26T13:08:00.106Z,4.43
2018-01-26T13:13:03.579Z,4.47
2018-01-26T13:18:07.439Z,4.57
2018-01-26T13:23:10.535Z,4.53
2018-01-26T13:28:14.967Z,4.70
2018-01-26T13:33:19.204Z,4.73
2018-01-26T13:38:23.091Z,4.60
2018-01-26T13:43:27.287Z,4.63
2018-01-26T13:48:30.371Z,5.63
2018-01-26T13:53:34.259Z,5.20
2018-01-26T13:58:38.987Z,6.03
2018-01-26T14:03:43.590Z,5.50
2018-01-26T14:08:46.685Z,6.07
2018-01-26T14:13:50.172Z,6.23
2018-01-26T14:18:54.765Z,6.07
2018-01-26T14:23:59.231Z,5.73
2018-01-26T14:29:03.465Z,5.60
2018-01-26T14:34:07.896Z,5.32
2018-01-26T14:39:12.337Z,5.77
2018-01-26T14:44:16.784Z,5.67
2018-01-26T14:49:21.425Z,5.60
2018-01-26T14:54:25.688Z,5.60
2018-01-26T14:59:29.587Z,5.53
2018-01-26T15:04:33.973Z,6.25
2018-01-26T15:09:37.096Z,5.97
2018-01-26T15:14:40.172Z,6.80
2018-01-26T15:19:44.012Z,6.60
2018-01-26T15:24:47.087Z,5.60
2018-01-26T15:29:50.560Z,5.67
2018-01-26T15:34:53.656Z,6.43
2018-01-26T15:39:56.743Z,6.13
2018-01-26T15:45:00.964Z,6.10
2018-01-26T15:50:05.420Z,6.90
2018-01-26T15:55:09.874Z,8.00
2018-01-26T16:00:13.719Z,8.23
2018-01-26T16:05:16.807Z,8.50
2018-01-26T16:10:19.894Z,9.67
2018-01-26T16:15:23.777Z,6.30
2018-01-26T16:20:29.115Z,6.23
2018-01-26T16:25:33.590Z,6.10
2018-01-26T16:30:37.064Z,5.60
2018-01-26T16:35:40.184Z,6.00
2018-01-26T16:40:45.363Z,6.90
2018-01-26T16:45:49.648Z,7.05
2018-01-26T16:50:52.780Z,7.00
2018-01-26T16:55:55.852Z,7.07
2018-01-26T17:00:59.323Z,7.07
2018-01-26T17:06:04.192Z,7.60
2018-01-26T17:11:08.036Z,7.70
2018-01-26T17:16:12.485Z,8.30
2018-01-26T17:21:17.100Z,10.40
2018-01-26T17:26:21.552Z,9.00
2018-01-26T17:31:25.068Z,8.00
2018-01-26T17:36:28.159Z,9.23
2018-01-26T17:41:32.604Z,7.90
2018-01-26T17:46:37.044Z,7.90
2018-01-26T17:51:40.139Z,10.47
2018-01-26T17:56:44.580Z,11.03
2018-01-26T18:01:48.529Z,9.07
2018-01-26T18:06:52.384Z,10.63
2018-01-26T18:11:56.841Z,11.83
2018-01-26T18:17:01.434Z,9.50
2018-01-26T18:22:05.875Z,9.73
2018-01-26T18:27:10.312Z,9.53
2018-01-26T18:32:14.772Z,10.50
2018-01-26T18:37:19.576Z,9.47
2018-01-26T18:42:24.017Z,8.73
2018-01-26T18:47:28.456Z,9.77
2018-01-26T18:52:31.551Z,9.80
2018-01-26T18:57:37.006Z,10.65
2018-01-26T19:02:41.435Z,10.83
2018-01-26T19:07:45.868Z,12.50
2018-01-26T19:12:48.973Z,12.37
2018-01-26T19:17:52.069Z,14.60
2018-01-26T19:22:56.508Z,18.13
2018-01-26T19:28:00.965Z,15.47
2018-01-26T19:33:05.388Z,15.70
2018-01-26T19:38:09.832Z,16.73
2018-01-26T19:43:14.268Z,13.47
2018-01-26T19:48:18.748Z,16.13
2018-01-26T19:53:21.841Z,14.87
2018-01-26T19:58:26.697Z,11.90
2018-01-26T20:03:32.757Z,13.70
2018-01-26T20:14:26.913Z,12.10
2018-01-26T20:19:31.144Z,12.97
2018-01-26T20:24:36.420Z,13.70
2018-01-26T20:29:40.901Z,13.80
2018-01-26T20:34:45.351Z,12.20
2018-01-26T20:39:49.869Z,14.07
2018-01-26T20:44:54.304Z,17.92
2018-01-26T20:49:58.897Z,15.20
2018-01-26T20:55:03.336Z,13.00
2018-01-26T21:00:06.869Z,11.63
2018-01-26T21:05:11.320Z,10.90
2018-01-26T21:10:15.769Z,14.43
2018-01-26T21:15:20.383Z,12.00
2018-01-26T21:20:24.858Z,12.63
2018-01-26T21:25:30.196Z,12.43
2018-01-26T21:30:34.640Z,13.53
2018-01-26T21:35:38.205Z,12.20
2018-01-26T21:40:43.111Z,12.87
2018-01-26T21:45:48.560Z,14.10
2018-01-26T21:50:52.083Z,14.53
2018-01-26T21:55:56.537Z,14.50
2018-01-26T22:01:00.021Z,13.10
2018-01-26T22:06:09.070Z,14.70
2018-01-26T22:11:12.949Z,11.90
2018-01-26T22:16:17.388Z,13.13
2018-01-26T22:21:21.979Z,13.10
2018-01-26T22:26:26.439Z,15.10
2018-01-26T22:31:30.331Z,14.10
2018-01-26T22:36:33.477Z,14.77
2018-01-26T22:41:37.560Z,14.83
2018-01-26T22:46:40.664Z,14.43
2018-01-26T22:51:44.896Z,15.13
2018-01-26T22:56:48.068Z,16.40
2018-01-26T23:01:51.167Z,13.47
2018-01-26T23:06:54.259Z,16.15
2018-01-26T23:11:59.406Z,13.10
2018-01-26T23:17:02.920Z,16.40
2018-01-26T23:22:07.345Z,15.30
2018-01-26T23:27:10.443Z,12.80
2018-01-26T23:32:14.325Z,14.57
2018-01-26T23:37:18.629Z,14.13
2018-01-26T23:42:22.576Z,13.13
2018-01-26T23:47:26.073Z,13.80
2018-01-26T23:52:30.304Z,14.00
2018-01-26T23:57:34.752Z,14.98
